Time;durP1;ratioP1;P1;durP2;ratioP2;P2;SDS_P1;SDS_P2;PMS_P1;PMS_P2;Temp;Humidity;BMP_temperature;BMP_pressure;BME280_temperature;BME280_humidity;BME280_pressure;Samples;Min_cycle;Max_cycle;Signal;HPM_P1;HPM_P2
2021/10/28 00:15:23;;;;;;;24.30;17.77;;;10.10;99.90;;;;;;5054421;28;20048;-65
2021/10/28 00:18:06;;;;;;;24.25;18.35;;;10.10;99.90;;;;;;5056569;28;20040;-66
2021/10/28 00:20:36;;;;;;;28.50;20.48;;;10.10;99.90;;;;;;5060794;28;20039;-66
2021/10/28 00:23:06;;;;;;;26.45;19.67;;;10.10;99.90;;;;;;5060616;28;20747;-66
2021/10/28 00:25:34;;;;;;;25.83;18.10;;;10.10;99.90;;;;;;5058936;28;20055;-65
2021/10/28 00:28:00;;;;;;;28.73;18.98;;;10.10;99.90;;;;;;5091608;27;20048;-65
2021/10/28 00:30:27;;;;;;;26.83;19.92;;;10.10;99.90;;;;;;5091073;28;20071;-65
2021/10/28 00:32:53;;;;;;;25.35;17.50;;;10.10;99.90;;;;;;5058208;28;20036;-65
2021/10/28 00:35:19;;;;;;;22.35;18.20;;;10.20;99.90;;;;;;5090108;27;20041;-65
2021/10/28 00:37:46;;;;;;;21.70;17.70;;;10.10;99.90;;;;;;5057578;28;20059;-66
2021/10/28 00:40:12;;;;;;;29.75;19.17;;;10.10;99.90;;;;;;5059557;28;20041;-65
2021/10/28 00:42:38;;;;;;;23.92;17.65;;;10.20;99.90;;;;;;5057807;28;20047;-66
2021/10/28 00:45:05;;;;;;;22.73;18.80;;;10.10;99.90;;;;;;5061527;28;20171;-66
2021/10/28 00:47:34;;;;;;;23.92;18.73;;;10.10;99.90;;;;;;5059436;28;20048;-66
2021/10/28 00:50:04;;;;;;;25.25;18.50;;;10.10;99.90;;;;;;5057768;28;20087;-66
2021/10/28 00:52:31;;;;;;;26.98;19.35;;;10.10;99.90;;;;;;5090346;28;20132;-66
2021/10/28 00:54:56;;;;;;;26.10;18.65;;;10.00;99.90;;;;;;5057537;28;20044;-66
2021/10/28 00:57:22;;;;;;;27.58;18.50;;;10.10;99.90;;;;;;5059176;28;20615;-66
2021/10/28 00:59:48;;;;;;;30.52;19.67;;;10.00;99.90;;;;;;5056949;28;20211;-66
2021/10/28 01:02:14;;;;;;;36.30;18.60;;;10.00;99.90;;;;;;5089491;28;20052;-66
2021/10/28 01:04:40;;;;;;;29.65;19.25;;;10.00;99.90;;;;;;5057841;28;20033;-65
2021/10/28 01:07:06;;;;;;;20.77;17.95;;;10.00;99.90;;;;;;5057297;28;20039;-65
2021/10/28 01:09:34;;;;;;;29.85;20.10;;;10.00;99.90;;;;;;5058698;28;20044;-65
2021/10/28 01:12:00;;;;;;;24.45;18.63;;;10.00;99.90;;;;;;5057900;28;20273;-65
2021/10/28 01:14:25;;;;;;;25.17;18.85;;;10.00;99.90;;;;;;5058821;28;20036;-65
2021/10/28 01:16:55;;;;;;;26.20;18.27;;;10.00;99.90;;;;;;5057115;28;20036;-66
2021/10/28 01:19:22;;;;;;;25.95;17.75;;;10.00;99.90;;;;;;5055545;28;20040;-66
2021/10/28 01:21:50;;;;;;;29.45;20.10;;;10.00;99.90;;;;;;5060660;28;20048;-66
2021/10/28 01:24:16;;;;;;;21.73;19.25;;;9.90;99.90;;;;;;5062533;28;20143;-66
2021/10/28 01:26:42;;;;;;;28.23;18.05;;;10.00;99.90;;;;;;5065293;28;20056;-66
2021/10/28 01:29:08;;;;;;;31.50;19.60;;;10.00;99.90;;;;;;5063680;28;20037;-65
2021/10/28 01:31:35;;;;;;;22.83;16.85;;;10.00;99.90;;;;;;5062891;28;20044;-65
2021/10/28 01:34:04;;;;;;;26.67;18.73;;;10.00;99.90;;;;;;5075059;28;20064;-65
2021/10/28 01:36:30;;;;;;;30.45;18.88;;;9.90;99.90;;;;;;5061770;28;20068;-65
2021/10/28 01:38:56;;;;;;;22.60;17.42;;;9.90;99.90;;;;;;5061774;28;20984;-65
2021/10/28 01:41:23;;;;;;;24.52;18.92;;;9.90;99.90;;;;;;5062542;28;20044;-65
2021/10/28 01:43:49;;;;;;;26.13;17.90;;;9.90;99.90;;;;;;5059987;28;20052;-65
2021/10/28 01:46:15;;;;;;;29.50;18.73;;;9.90;99.90;;;;;;5066550;28;20046;-66
2021/10/28 01:48:41;;;;;;;25.92;18.38;;;9.90;99.90;;;;;;5059312;28;20368;-66
2021/10/28 01:51:08;;;;;;;24.73;18.83;;;9.90;99.90;;;;;;5061081;28;20051;-66
2021/10/28 01:53:36;;;;;;;26.45;18.42;;;9.90;99.90;;;;;;5061864;28;20029;-66
2021/10/28 01:56:03;;;;;;;27.75;18.33;;;9.90;99.90;;;;;;5060216;28;20040;-66
2021/10/28 01:58:29;;;;;;;27.65;18.75;;;9.90;99.90;;;;;;5063193;28;20032;-66
2021/10/28 02:00:54;;;;;;;27.42;18.98;;;9.90;99.90;;;;;;5061917;28;20055;-66
2021/10/28 02:03:20;;;;;;;22.40;18.10;;;9.90;99.90;;;;;;5062899;28;20389;-66
2021/10/28 02:05:47;;;;;;;26.52;18.70;;;9.90;99.90;;;;;;5062300;28;20035;-66
2021/10/28 02:08:13;;;;;;;23.45;18.63;;;9.90;99.90;;;;;;5064098;28;20055;-66
2021/10/28 02:10:39;;;;;;;24.90;19.63;;;9.90;99.90;;;;;;5062388;28;20444;-66
2021/10/28 02:13:05;;;;;;;27.02;17.92;;;9.90;99.90;;;;;;5062624;28;20036;-66
2021/10/28 02:15:31;;;;;;;22.65;17.85;;;9.90;99.90;;;;;;5062126;28;20033;-66
2021/10/28 02:17:56;;;;;;;24.60;18.38;;;9.90;99.90;;;;;;5057942;28;20126;-66
2021/10/28 02:20:22;;;;;;;24.75;17.48;;;9.90;99.90;;;;;;5063275;28;20033;-66
2021/10/28 02:22:49;;;;;;;20.48;17.33;;;9.90;99.90;;;;;;5060329;28;20330;-65
2021/10/28 02:25:15;;;;;;;30.25;18.63;;;9.90;99.90;;;;;;5059972;28;20566;-65
2021/10/28 02:27:41;;;;;;;24.20;16.88;;;9.90;99.90;;;;;;5063179;28;20429;-65
2021/10/28 02:30:09;;;;;;;24.55;18.38;;;9.90;99.90;;;;;;5063179;28;20029;-66
2021/10/28 02:32:35;;;;;;;24.17;17.38;;;9.80;99.90;;;;;;5061420;28;20040;-66
2021/10/28 02:35:01;;;;;;;24.17;17.45;;;9.80;99.90;;;;;;5060542;28;20040;-66
2021/10/28 02:37:28;;;;;;;29.60;17.67;;;9.80;99.90;;;;;;5060581;28;20036;-65
2021/10/28 02:39:53;;;;;;;23.77;17.48;;;9.90;99.90;;;;;;5060159;28;20197;-66
2021/10/28 02:42:20;;;;;;;22.63;17.55;;;9.90;99.90;;;;;;5060656;28;20044;-66
2021/10/28 02:44:45;;;;;;;22.67;17.40;;;9.90;99.90;;;;;;5060197;28;20072;-66
2021/10/28 02:47:11;;;;;;;24.00;17.42;;;9.80;99.90;;;;;;5061457;28;20079;-66
2021/10/28 02:49:37;;;;;;;22.02;17.48;;;9.80;99.90;;;;;;5061459;28;20091;-65
2021/10/28 02:52:04;;;;;;;22.20;17.23;;;9.80;99.90;;;;;;5061474;28;20048;-66
2021/10/28 02:54:30;;;;;;;26.42;17.08;;;9.80;99.90;;;;;;5062509;28;20073;-66
2021/10/28 02:56:56;;;;;;;25.05;16.70;;;9.80;99.90;;;;;;5092626;27;20084;-66
2021/10/28 02:59:22;;;;;;;22.35;17.20;;;9.80;99.90;;;;;;5062703;28;20047;-66
2021/10/28 03:01:50;;;;;;;24.70;18.70;;;9.70;99.90;;;;;;5062504;28;20053;-65
2021/10/28 03:04:18;;;;;;;20.77;17.20;;;9.80;99.90;;;;;;5066849;28;20040;-66
2021/10/28 03:06:45;;;;;;;19.98;16.05;;;9.80;99.90;;;;;;5062447;28;20064;-66
2021/10/28 03:09:17;;;;;;;20.98;16.42;;;9.70;99.90;;;;;;5059098;28;20490;-66
2021/10/28 03:11:43;;;;;;;22.38;16.17;;;9.70;99.90;;;;;;5064360;28;20040;-65
2021/10/28 03:14:14;;;;;;;22.05;15.82;;;9.70;99.90;;;;;;5062410;28;20488;-65
2021/10/28 03:27:27;;;;;;;23.35;17.40;;;9.70;99.90;;;;;;5091993;28;20052;-65
2021/10/28 03:29:53;;;;;;;22.27;16.17;;;9.70;99.90;;;;;;5063517;28;20044;-65
2021/10/28 03:32:20;;;;;;;20.92;16.55;;;9.60;99.90;;;;;;5058939;28;20423;-65
2021/10/28 03:34:48;;;;;;;22.48;16.33;;;9.60;99.90;;;;;;5064192;28;20041;-65
2021/10/28 03:37:21;;;;;;;22.42;15.48;;;9.70;99.90;;;;;;5061421;28;20099;-66
2021/10/28 03:45:44;;;;;;;22.60;16.75;;;9.60;99.90;;;;;;5091457;28;20056;-65
2021/10/28 03:56:36;;;;;;;22.35;15.73;;;9.50;99.90;;;;;;5067653;28;20051;-66
2021/10/28 04:30:24;;;;;;;19.90;14.30;;;9.30;99.90;;;;;;5095224;28;20528;-65
2021/10/28 04:32:51;;;;;;;20.23;13.70;;;9.30;99.90;;;;;;5066086;28;20064;-66
2021/10/28 04:35:17;;;;;;;21.88;15.38;;;9.30;99.90;;;;;;5064011;28;20113;-66
2021/10/28 04:37:45;;;;;;;22.88;14.88;;;9.40;99.90;;;;;;5067735;28;20041;-66
2021/10/28 04:40:11;;;;;;;19.05;13.88;;;9.30;99.90;;;;;;5060192;28;20044;-65
2021/10/28 04:42:37;;;;;;;16.45;12.93;;;9.40;99.90;;;;;;5065110;28;20487;-66
2021/10/28 04:45:04;;;;;;;17.35;14.75;;;9.30;99.90;;;;;;5060562;28;20101;-66
2021/10/28 04:47:31;;;;;;;17.75;13.40;;;9.30;99.90;;;;;;5093250;28;20044;-66
2021/10/28 04:49:56;;;;;;;25.45;14.73;;;9.30;99.90;;;;;;5064981;28;20091;-66
2021/10/28 04:52:22;;;;;;;21.10;13.95;;;9.30;99.90;;;;;;5066486;28;20076;-65
2021/10/28 04:54:49;;;;;;;20.10;14.18;;;9.30;99.90;;;;;;5066242;28;20459;-66
2021/10/28 04:57:15;;;;;;;20.25;12.32;;;9.30;99.90;;;;;;5065001;28;20042;-65
2021/10/28 04:59:41;;;;;;;21.30;14.35;;;9.30;99.90;;;;;;5064143;28;20071;-65
2021/10/28 05:02:07;;;;;;;15.27;13.25;;;9.20;99.90;;;;;;5064945;28;20040;-65
2021/10/28 05:04:33;;;;;;;18.08;14.07;;;9.30;99.90;;;;;;5048802;28;20102;-65
2021/10/28 05:06:59;;;;;;;18.00;13.38;;;9.30;99.90;;;;;;5063978;28;20498;-66
2021/10/28 05:09:32;;;;;;;19.42;13.93;;;9.30;99.90;;;;;;5065585;28;20052;-66
2021/10/28 05:11:58;;;;;;;19.13;14.48;;;9.30;99.90;;;;;;5064191;28;20054;-66
2021/10/28 05:14:24;;;;;;;21.88;15.15;;;9.30;99.90;;;;;;5093854;27;20433;-66
2021/10/28 05:16:57;;;;;;;18.10;14.30;;;9.30;99.90;;;;;;5055128;28;20044;-66
2021/10/28 05:19:29;;;;;;;16.95;14.73;;;9.20;99.90;;;;;;5056573;28;20045;-66
2021/10/28 05:21:55;;;;;;;17.77;14.20;;;9.20;99.90;;;;;;5059165;28;20041;-66
2021/10/28 05:24:21;;;;;;;17.33;14.10;;;9.20;99.90;;;;;;5058381;28;20048;-65
2021/10/28 05:26:46;;;;;;;16.63;14.57;;;9.20;99.90;;;;;;5058407;28;20123;-66
2021/10/28 05:29:12;;;;;;;17.35;14.75;;;9.10;99.90;;;;;;5059390;28;20051;-66
2021/10/28 05:31:37;;;;;;;20.75;16.02;;;9.10;99.90;;;;;;5056848;28;20032;-66
2021/10/28 05:34:03;;;;;;;15.65;13.68;;;9.10;99.90;;;;;;5058188;28;20261;-66
2021/10/28 05:36:29;;;;;;;17.77;15.35;;;9.10;99.90;;;;;;5059937;28;20133;-66
2021/10/28 05:38:54;;;;;;;19.52;15.25;;;9.00;99.90;;;;;;5055386;28;20044;-66
2021/10/28 05:41:20;;;;;;;18.10;13.77;;;9.10;99.90;;;;;;5057590;28;20075;-66
2021/10/28 05:43:46;;;;;;;17.88;14.73;;;9.00;99.90;;;;;;5056100;28;20128;-66
2021/10/28 05:46:12;;;;;;;17.98;14.65;;;9.00;99.90;;;;;;5059928;28;20066;-66
2021/10/28 05:48:37;;;;;;;20.45;15.50;;;9.00;99.90;;;;;;5056137;28;20499;-65
2021/10/28 05:51:04;;;;;;;22.08;15.23;;;9.00;99.90;;;;;;5054986;28;20044;-66
2021/10/28 05:53:30;;;;;;;25.00;16.08;;;9.00;99.90;;;;;;5087004;28;20039;-66
2021/10/28 05:55:56;;;;;;;24.17;17.10;;;9.00;99.90;;;;;;5059564;28;20044;-66
2021/10/28 05:58:22;;;;;;;21.90;16.23;;;8.90;99.90;;;;;;5058575;28;20036;-66
2021/10/28 06:00:48;;;;;;;22.35;17.05;;;9.00;99.90;;;;;;5057257;28;20106;-66
2021/10/28 06:03:14;;;;;;;24.08;16.45;;;8.90;99.90;;;;;;5056164;28;20033;-66
2021/10/28 06:05:40;;;;;;;23.20;16.58;;;8.90;99.90;;;;;;5054154;28;20036;-66
2021/10/28 06:08:06;;;;;;;22.02;15.55;;;8.90;99.90;;;;;;5054200;28;20077;-66
2021/10/28 06:10:32;;;;;;;20.83;15.73;;;8.90;99.90;;;;;;5053354;28;20420;-66
2021/10/28 06:13:01;;;;;;;23.17;16.13;;;8.90;99.90;;;;;;5053903;28;20756;-66
2021/10/28 06:15:29;;;;;;;28.05;17.80;;;8.90;99.90;;;;;;5056816;28;20630;-66
2021/10/28 06:17:59;;;;;;;22.58;17.40;;;8.80;99.90;;;;;;5054482;28;20463;-66
2021/10/28 06:20:26;;;;;;;28.80;18.10;;;8.80;99.90;;;;;;5087242;27;20036;-66
2021/10/28 06:22:52;;;;;;;24.75;17.63;;;8.80;99.90;;;;;;5054216;28;20036;-66
2021/10/28 06:25:20;;;;;;;25.75;17.48;;;8.80;99.90;;;;;;5058264;28;20039;-66
2021/10/28 06:27:46;;;;;;;23.35;18.45;;;8.80;99.90;;;;;;5056305;28;20051;-66
2021/10/28 06:30:12;;;;;;;27.95;19.45;;;8.80;99.90;;;;;;5056097;28;20482;-66
2021/10/28 06:32:53;;;;;;;30.08;20.02;;;8.80;99.90;;;;;;5055471;28;20037;-66
2021/10/28 06:35:20;;;;;;;24.85;18.75;;;8.70;99.90;;;;;;5053614;28;20377;-66
2021/10/28 06:37:47;;;;;;;28.77;19.60;;;8.70;99.90;;;;;;5054634;28;20156;-66
2021/10/28 06:40:15;;;;;;;27.08;19.95;;;8.80;99.90;;;;;;5054330;28;20032;-66
2021/10/28 06:42:41;;;;;;;24.83;18.58;;;8.80;99.90;;;;;;5054981;28;20047;-66
2021/10/28 06:45:07;;;;;;;27.02;18.95;;;8.80;99.90;;;;;;5055382;28;20478;-66
2021/10/28 06:47:33;;;;;;;25.88;19.52;;;8.70;99.90;;;;;;5053138;28;20040;-66
2021/10/28 06:50:06;;;;;;;24.98;18.90;;;8.80;99.90;;;;;;5058431;28;20110;-66
2021/10/28 07:04:03;;;;;;;23.77;18.27;;;8.80;99.90;;;;;;5000552;28;20038;-66
2021/10/28 07:06:29;;;;;;;23.05;17.80;;;8.80;99.90;;;;;;5054203;28;20049;-66
2021/10/28 07:09:42;;;;;;;23.83;17.95;;;8.80;99.90;;;;;;5054611;28;20040;-66
2021/10/28 07:11:49;;;;;;;27.98;17.75;;;8.80;99.90;;;;;;5051498;28;20056;-66
2021/10/28 07:14:15;;;;;;;22.30;17.80;;;8.80;99.90;;;;;;5055460;28;20090;-66
2021/10/28 07:16:46;;;;;;;30.25;18.70;;;8.80;99.90;;;;;;5052968;28;20048;-66
2021/10/28 07:19:36;;;;;;;25.08;18.38;;;8.90;99.90;;;;;;5053870;28;20041;-66
2021/10/28 07:30:16;;;;;;;27.45;17.65;;;9.00;99.90;;;;;;5053617;28;20051;-66
2021/10/28 07:38:30;;;;;;;25.83;16.65;;;9.10;99.90;;;;;;5056173;28;20047;-66
2021/10/28 08:14:02;;;;;;;19.67;14.05;;;9.70;99.90;;;;;;5055834;28;20053;-66
2021/10/28 08:21:59;;;;;;;18.35;15.25;;;9.90;99.90;;;;;;5086164;28;20138;-66
2021/10/28 08:29:48;;;;;;;19.77;14.35;;;10.10;99.90;;;;;;5054054;28;20449;-66
2021/10/28 08:32:15;;;;;;;20.63;14.35;;;10.10;99.90;;;;;;5056655;28;20032;-66
2021/10/28 08:34:42;;;;;;;19.33;14.80;;;10.10;99.90;;;;;;5054577;28;20037;-66
2021/10/28 08:37:11;;;;;;;17.77;15.02;;;10.20;99.90;;;;;;5054801;28;20047;-66
2021/10/28 08:39:49;;;;;;;23.17;14.48;;;10.30;99.90;;;;;;5058619;28;20483;-66
2021/10/28 08:42:16;;;;;;;15.30;13.65;;;10.30;99.90;;;;;;5063144;28;20036;-66
2021/10/28 08:44:51;;;;;;;23.13;14.10;;;10.40;99.90;;;;;;5049593;28;20313;-66
2021/10/28 08:47:18;;;;;;;19.13;13.83;;;10.50;99.90;;;;;;5053987;28;20430;-66
2021/10/28 08:49:48;;;;;;;24.23;14.80;;;10.50;99.90;;;;;;5059150;28;20032;-66
2021/10/28 08:52:36;;;;;;;24.30;13.93;;;10.60;99.90;;;;;;5058563;28;20122;-66
2021/10/28 09:26:14;;;;;;;17.10;13.80;;;11.40;99.90;;;;;;5054991;28;20041;-66
2021/10/28 09:28:45;;;;;;;20.05;12.75;;;11.50;99.90;;;;;;5059496;28;20565;-66
2021/10/28 09:31:15;;;;;;;17.02;12.82;;;11.60;99.90;;;;;;5056770;28;20033;-66
2021/10/28 09:34:06;;;;;;;16.20;12.60;;;11.60;99.90;;;;;;5056429;28;20102;-66
2021/10/28 09:49:48;;;;;;;19.58;11.48;;;12.00;99.90;;;;;;5054225;28;20132;-66
2021/10/28 09:51:34;;;;;;;14.40;11.07;;;12.10;99.90;;;;;;5055741;28;20111;-66
2021/10/28 09:59:28;;;;;;;15.65;11.27;;;12.30;99.90;;;;;;5057625;28;20040;-66
2021/10/28 10:02:08;;;;;;;12.30;10.98;;;12.30;99.90;;;;;;5058551;28;20522;-67
2021/10/28 10:04:35;;;;;;;18.48;11.80;;;12.40;99.90;;;;;;5058278;28;20040;-66
2021/10/28 10:07:02;;;;;;;15.75;11.75;;;12.40;99.90;;;;;;5053129;28;20048;-66
2021/10/28 10:09:29;;;;;;;13.88;10.60;;;12.60;99.90;;;;;;5051622;28;20060;-66
2021/10/28 10:11:56;;;;;;;15.90;11.25;;;12.60;99.90;;;;;;5055137;28;20039;-66
2021/10/28 10:14:23;;;;;;;16.02;11.68;;;12.60;99.90;;;;;;5054490;28;20036;-66
2021/10/28 10:16:51;;;;;;;12.38;11.02;;;12.80;99.90;;;;;;5055458;28;20052;-66
2021/10/28 10:19:20;;;;;;;16.45;10.90;;;12.80;99.90;;;;;;5049922;28;20052;-66
2021/10/28 10:21:51;;;;;;;15.55;10.80;;;12.90;99.90;;;;;;5054137;28;20514;-66
2021/10/28 10:24:30;;;;;;;12.43;10.10;;;13.00;99.90;;;;;;5058010;28;20040;-66
2021/10/28 11:25:43;;;;;;;7.07;6.32;;;16.60;99.90;;;;;;5055376;28;20050;-66
2021/10/28 12:19:59;;;;;;;9.20;5.50;;;17.50;99.90;;;;;;5058648;28;20123;-66
2021/10/28 12:45:19;;;;;;;14.55;5.60;;;17.40;99.90;;;;;;5090043;28;20041;-67
2021/10/28 12:53:09;;;;;;;9.05;4.97;;;17.40;99.90;;;;;;5087985;27;20603;-66
2021/10/28 13:34:55;;;;;;;6.80;5.53;;;16.90;99.90;;;;;;5091145;27;20620;-66
2021/10/28 13:48:14;;;;;;;10.52;5.40;;;16.50;99.90;;;;;;5024096;28;20116;-67
2021/10/28 13:50:43;;;;;;;5.55;4.97;;;16.50;99.90;;;;;;5054542;28;20165;-66
2021/10/28 13:53:31;;;;;;;8.20;5.55;;;16.40;99.90;;;;;;5056803;28;20143;-66
2021/10/28 14:31:42;;;;;;;11.85;6.60;;;16.00;99.90;;;;;;5054872;28;20045;-66
2021/10/28 14:37:08;;;;;;;9.20;6.57;;;15.90;99.90;;;;;;5055045;28;20390;-66
2021/10/28 15:00:00;;;;;;;10.98;6.47;;;15.60;99.90;;;;;;5055832;28;20036;-66
2021/10/28 15:34:30;;;;;;;10.07;5.63;;;15.00;99.90;;;;;;5053289;28;20036;-66
2021/10/28 15:37:27;;;;;;;9.88;6.20;;;15.00;99.90;;;;;;5053479;28;20194;-66
2021/10/28 15:48:39;;;;;;;9.75;6.22;;;14.80;99.90;;;;;;5054757;28;20048;-66
2021/10/28 16:23:24;;;;;;;10.68;5.28;;;14.00;99.90;;;;;;5086274;28;20074;-66
2021/10/28 16:25:50;;;;;;;12.55;6.03;;;13.90;99.90;;;;;;5056107;28;20490;-66
2021/10/28 16:28:17;;;;;;;7.65;6.20;;;13.90;99.90;;;;;;5055510;28;20063;-66
2021/10/28 16:30:46;;;;;;;11.35;5.72;;;13.80;99.90;;;;;;5057506;28;20510;-66
2021/10/28 16:33:13;;;;;;;9.60;5.53;;;13.70;99.90;;;;;;5056497;28;20045;-66
2021/10/28 16:35:41;;;;;;;7.68;5.53;;;13.70;99.90;;;;;;5056241;28;20045;-66
2021/10/28 16:38:08;;;;;;;10.00;5.57;;;13.70;99.90;;;;;;5059270;28;20028;-66
2021/10/28 16:40:35;;;;;;;8.57;5.93;;;13.60;99.90;;;;;;5059622;28;20525;-66
2021/10/28 16:43:01;;;;;;;11.13;5.93;;;13.50;99.90;;;;;;5057172;28;20374;-66
2021/10/28 16:45:27;;;;;;;12.68;5.90;;;13.50;99.90;;;;;;5056948;28;20048;-66
2021/10/28 16:47:53;;;;;;;11.75;5.65;;;13.40;99.90;;;;;;5056877;28;20037;-66
2021/10/28 16:50:18;;;;;;;7.30;6.13;;;13.40;99.90;;;;;;5056796;28;20186;-66
2021/10/28 16:52:44;;;;;;;13.07;6.72;;;13.40;99.90;;;;;;5090264;28;20036;-66
2021/10/28 16:55:10;;;;;;;8.95;6.28;;;13.30;99.90;;;;;;5060194;28;20041;-66
2021/10/28 16:57:36;;;;;;;9.35;6.07;;;13.20;99.90;;;;;;5055088;28;20044;-66
2021/10/28 17:00:05;;;;;;;11.82;6.15;;;13.10;99.90;;;;;;5058988;28;20039;-66
2021/10/28 17:02:31;;;;;;;10.10;7.07;;;13.10;99.90;;;;;;5063459;28;20040;-66
2021/10/28 17:04:57;;;;;;;23.00;6.65;;;13.00;99.90;;;;;;5063357;28;20048;-66
2021/10/28 17:07:24;;;;;;;12.75;6.53;;;12.90;99.90;;;;;;5091494;27;20102;-66
2021/10/28 17:09:52;;;;;;;12.40;6.80;;;12.90;99.90;;;;;;5060282;28;20485;-66
2021/10/28 17:12:19;;;;;;;12.70;6.05;;;12.80;99.90;;;;;;5060837;28;20120;-66
2021/10/28 17:14:44;;;;;;;12.90;7.55;;;12.80;99.90;;;;;;5060745;28;20033;-66
2021/10/28 17:17:11;;;;;;;14.23;7.03;;;12.70;99.90;;;;;;5062083;28;20036;-66
2021/10/28 17:19:37;;;;;;;13.60;6.10;;;12.60;99.90;;;;;;5057447;28;20134;-66
2021/10/28 17:22:03;;;;;;;13.82;6.55;;;12.60;99.90;;;;;;5058615;28;20052;-66
2021/10/28 17:24:36;;;;;;;13.52;6.25;;;12.60;99.90;;;;;;5063805;28;20052;-66
2021/10/28 17:27:06;;;;;;;11.10;6.75;;;12.60;99.90;;;;;;5063846;28;20072;-66
2021/10/28 17:29:33;;;;;;;16.80;6.55;;;12.60;99.90;;;;;;5066938;28;20032;-66
2021/10/28 17:31:59;;;;;;;18.83;6.88;;;12.60;99.90;;;;;;5064284;28;20048;-66
2021/10/28 17:34:27;;;;;;;13.15;6.45;;;12.60;99.90;;;;;;5065009;28;20113;-66
2021/10/28 17:36:55;;;;;;;9.35;6.18;;;12.60;99.90;;;;;;5066381;28;20119;-66
2021/10/28 17:39:23;;;;;;;10.45;6.68;;;12.50;99.90;;;;;;5068307;28;20090;-66
2021/10/28 17:41:50;;;;;;;11.18;6.65;;;12.50;99.90;;;;;;5063813;28;20498;-66
2021/10/28 17:44:20;;;;;;;13.57;7.20;;;12.50;99.90;;;;;;5062402;28;20040;-66
2021/10/28 17:46:46;;;;;;;12.02;6.78;;;12.50;99.90;;;;;;5063056;28;20036;-66
2021/10/28 17:49:12;;;;;;;10.30;6.65;;;12.70;99.90;;;;;;5060765;28;20728;-66
2021/10/28 17:51:41;;;;;;;11.85;7.28;;;12.50;99.90;;;;;;5065802;28;20546;-66
2021/10/28 17:54:11;;;;;;;11.63;7.32;;;12.50;99.90;;;;;;5063900;28;20040;-66
2021/10/28 17:56:40;;;;;;;23.38;7.25;;;12.50;99.90;;;;;;5062858;28;20097;-67
2021/10/28 17:59:07;;;;;;;12.98;7.60;;;12.60;99.90;;;;;;5063641;28;21524;-66
2021/10/28 18:01:34;;;;;;;10.60;6.82;;;12.50;99.90;;;;;;5064206;28;20127;-66
2021/10/28 18:04:00;;;;;;;17.45;7.80;;;12.50;99.90;;;;;;5067469;28;20094;-66
2021/10/28 18:06:30;;;;;;;16.05;7.82;;;12.40;99.90;;;;;;5064484;28;20080;-66
2021/10/28 18:09:00;;;;;;;14.85;8.20;;;12.50;99.90;;;;;;5060403;28;20041;-66
2021/10/28 18:11:26;;;;;;;11.73;8.38;;;12.40;99.90;;;;;;5063954;28;20059;-66
2021/10/28 18:13:57;;;;;;;14.15;7.75;;;12.40;99.90;;;;;;5065219;28;20051;-66
2021/10/28 18:16:25;;;;;;;10.95;7.90;;;12.50;99.90;;;;;;5064242;28;20047;-66
2021/10/28 18:18:52;;;;;;;12.52;7.95;;;12.50;99.90;;;;;;5062138;28;20036;-66
2021/10/28 18:21:18;;;;;;;15.43;7.60;;;12.40;99.90;;;;;;5065439;28;20494;-66
2021/10/28 18:23:48;;;;;;;11.50;7.88;;;12.40;99.90;;;;;;5063247;28;20036;-66
2021/10/28 18:26:16;;;;;;;12.90;8.05;;;12.40;99.90;;;;;;5063925;28;20037;-66
2021/10/28 18:28:42;;;;;;;10.13;7.75;;;12.50;99.90;;;;;;5063041;28;20044;-66
2021/10/28 18:31:07;;;;;;;12.35;7.53;;;12.50;99.90;;;;;;5063625;28;20070;-66
2021/10/28 18:33:33;;;;;;;14.25;8.50;;;12.50;99.90;;;;;;5061343;28;20382;-67
2021/10/28 18:35:59;;;;;;;16.00;8.07;;;12.50;99.90;;;;;;5062250;28;20391;-66
2021/10/28 18:38:26;;;;;;;13.18;8.63;;;12.40;99.90;;;;;;5063976;28;20032;-66
2021/10/28 18:40:54;;;;;;;9.77;7.85;;;12.40;99.90;;;;;;5061991;28;20077;-66
2021/10/28 18:43:20;;;;;;;14.40;8.00;;;12.50;99.90;;;;;;5060474;28;20048;-66
2021/10/28 18:45:45;;;;;;;14.77;8.82;;;12.40;99.90;;;;;;5092016;27;20049;-66
2021/10/28 18:48:13;;;;;;;12.77;8.70;;;12.40;99.90;;;;;;5062304;28;20503;-66
2021/10/28 18:50:38;;;;;;;15.63;8.43;;;12.30;99.90;;;;;;5061441;28;20044;-66
2021/10/28 18:53:05;;;;;;;13.48;8.88;;;12.30;99.90;;;;;;5061669;28;20047;-66
2021/10/28 18:55:30;;;;;;;9.02;7.70;;;12.30;99.90;;;;;;5067146;28;20048;-66
2021/10/28 18:57:56;;;;;;;13.85;8.95;;;12.30;99.90;;;;;;5062395;28;20037;-66
2021/10/28 19:00:22;;;;;;;10.38;8.35;;;12.30;99.90;;;;;;5058693;28;20417;-66
2021/10/28 19:02:48;;;;;;;12.07;8.23;;;12.20;99.90;;;;;;5059671;28;20060;-66
2021/10/28 19:05:14;;;;;;;15.35;8.68;;;12.20;99.90;;;;;;5091469;27;20439;-66
2021/10/28 19:07:39;;;;;;;13.25;7.68;;;12.20;99.90;;;;;;5063467;28;20475;-66
2021/10/28 19:10:06;;;;;;;26.35;9.30;;;12.20;99.90;;;;;;5058381;28;20055;-66
2021/10/28 19:12:32;;;;;;;11.10;8.93;;;12.20;99.90;;;;;;5057728;28;20093;-66
2021/10/28 19:14:58;;;;;;;13.30;8.55;;;12.20;99.90;;;;;;5059687;28;20052;-66
2021/10/28 19:17:24;;;;;;;11.57;9.38;;;12.10;99.90;;;;;;5061693;28;20033;-66
2021/10/28 19:19:50;;;;;;;23.25;9.48;;;12.10;99.90;;;;;;5083580;28;20072;-66
2021/10/28 19:22:16;;;;;;;11.43;9.35;;;12.10;99.90;;;;;;5058757;28;20574;-66
2021/10/28 19:24:42;;;;;;;12.25;10.00;;;12.10;99.90;;;;;;5064967;28;20410;-66
2021/10/28 19:27:08;;;;;;;15.00;9.85;;;12.10;99.90;;;;;;5059436;28;20045;-66
2021/10/28 19:29:37;;;;;;;12.32;8.85;;;12.00;99.90;;;;;;5057210;28;20052;-66
2021/10/28 19:32:13;;;;;;;20.17;10.45;;;12.00;99.90;;;;;;5089653;28;20045;-66
2021/10/28 19:34:40;;;;;;;18.27;10.18;;;12.00;99.90;;;;;;5061499;28;20044;-66
2021/10/28 19:37:22;;;;;;;13.25;10.27;;;12.00;99.90;;;;;;5063958;28;20045;-66
2021/10/28 19:47:30;;;;;;;15.13;10.63;;;11.90;99.90;;;;;;5059425;28;20510;-66
2021/10/28 19:49:56;;;;;;;16.15;10.02;;;11.90;99.90;;;;;;5090426;27;20045;-66
2021/10/28 19:52:22;;;;;;;15.13;10.57;;;11.90;99.90;;;;;;5063497;28;20084;-66
2021/10/28 19:54:49;;;;;;;12.35;10.40;;;11.90;99.90;;;;;;5060963;28;20056;-66
2021/10/28 19:57:20;;;;;;;13.90;9.95;;;11.90;99.90;;;;;;5088417;28;20068;-66
2021/10/28 19:59:51;;;;;;;16.85;11.23;;;11.90;99.90;;;;;;5061178;28;20033;-66
2021/10/28 20:02:38;;;;;;;14.38;11.15;;;11.90;99.90;;;;;;5058170;28;20094;-66
2021/10/28 20:05:21;;;;;;;15.48;10.45;;;11.80;99.90;;;;;;5057572;28;20482;-66
2021/10/28 20:13:36;;;;;;;17.88;10.90;;;11.70;99.90;;;;;;5064192;28;20055;-66
2021/10/28 20:21:31;;;;;;;13.32;11.20;;;11.70;99.90;;;;;;5060077;28;20041;-66
2021/10/28 20:23:57;;;;;;;14.02;10.63;;;11.70;99.90;;;;;;5058468;28;20071;-66
2021/10/28 20:26:23;;;;;;;14.45;10.80;;;11.70;99.90;;;;;;5059865;28;20072;-66
2021/10/28 20:28:51;;;;;;;14.52;11.40;;;11.70;99.90;;;;;;5060257;28;20119;-66
2021/10/28 20:31:19;;;;;;;12.90;11.48;;;11.70;99.90;;;;;;5059520;28;20170;-66
2021/10/28 20:34:33;;;;;;;13.65;10.98;;;11.70;99.90;;;;;;5060060;28;20466;-66
2021/10/28 20:39:22;;;;;;;14.27;11.93;;;11.60;99.90;;;;;;5063981;28;20124;-66
2021/10/28 20:41:47;;;;;;;15.45;11.55;;;11.60;99.90;;;;;;5063647;28;20127;-66
2021/10/28 20:44:13;;;;;;;18.70;11.52;;;11.60;99.90;;;;;;5065605;28;20395;-66
2021/10/28 20:46:39;;;;;;;16.20;12.07;;;11.50;99.90;;;;;;5059732;28;20044;-66
2021/10/28 20:49:05;;;;;;;14.43;11.15;;;11.50;99.90;;;;;;5060246;28;20040;-66
2021/10/28 20:51:31;;;;;;;15.25;11.85;;;11.50;99.90;;;;;;5067900;28;20041;-66
2021/10/28 20:53:57;;;;;;;16.30;11.82;;;11.50;99.90;;;;;;5061499;28;20127;-66
2021/10/28 20:56:26;;;;;;;19.92;12.90;;;11.50;99.90;;;;;;5063436;28;20051;-66
2021/10/28 20:58:52;;;;;;;14.23;11.43;;;11.50;99.90;;;;;;5065024;28;20051;-66
2021/10/28 21:01:19;;;;;;;20.45;12.45;;;11.40;99.90;;;;;;5049614;28;20076;-66
2021/10/28 21:03:44;;;;;;;15.20;12.32;;;11.50;99.90;;;;;;5095218;27;20047;-66
2021/10/28 21:06:10;;;;;;;17.20;13.20;;;11.40;99.90;;;;;;5091097;28;21626;-66
2021/10/28 21:08:36;;;;;;;19.13;12.35;;;11.40;99.90;;;;;;5060202;28;20044;-66
2021/10/28 21:11:02;;;;;;;17.20;13.57;;;11.40;99.90;;;;;;5061699;28;20119;-66
2021/10/28 21:13:28;;;;;;;15.02;13.38;;;11.30;99.90;;;;;;5067310;28;20037;-66
2021/10/28 21:15:54;;;;;;;17.45;12.60;;;11.30;99.90;;;;;;5065042;28;20033;-66
2021/10/28 21:18:20;;;;;;;20.42;14.00;;;11.30;99.90;;;;;;5062437;28;20393;-65
2021/10/28 21:20:46;;;;;;;13.45;12.02;;;11.30;99.90;;;;;;5061643;28;20040;-66
2021/10/28 21:23:12;;;;;;;14.00;11.88;;;11.20;99.90;;;;;;5058422;28;20457;-66
2021/10/28 21:25:37;;;;;;;15.25;12.60;;;11.20;99.90;;;;;;5060191;28;20052;-66
2021/10/28 21:28:04;;;;;;;16.48;12.07;;;11.20;99.90;;;;;;5062468;28;20040;-66